Time;durP1;ratioP1;P1;durP2;ratioP2;P2;SDS_P1;SDS_P2;PMS_P1;PMS_P2;Temp;Humidity;BMP_temperature;BMP_pressure;BME280_temperature;BME280_humidity;BME280_pressure;Samples;Min_cycle;Max_cycle;Signal;HPM_P1;HPM_P2
2021/01/18 00:02:01;;;;;;;40.23;10.07;;;4.20;92.80;;;;;;5002045;28;20078;-90
2021/01/18 00:04:27;;;;;;;38.57;9.57;;;4.10;93.60;;;;;;5002105;28;20042;-90
2021/01/18 00:06:53;;;;;;;35.27;9.93;;;4.20;93.40;;;;;;5002163;28;20015;-90
2021/01/18 00:09:18;;;;;;;42.53;9.30;;;4.20;94.70;;;;;;5002016;28;20037;-92
2021/01/18 00:11:45;;;;;;;32.53;8.47;;;4.20;94.50;;;;;;5002113;28;20030;-90
2021/01/18 00:14:11;;;;;;;32.00;8.03;;;4.20;93.60;;;;;;5002136;28;20025;-90
2021/01/18 00:16:36;;;;;;;34.77;8.77;;;4.20;94.70;;;;;;5001973;28;20034;-91
2021/01/18 00:19:02;;;;;;;33.20;8.03;;;4.20;94.10;;;;;;5002153;28;20101;-90
2021/01/18 00:21:27;;;;;;;33.00;7.90;;;4.20;93.70;;;;;;5001801;28;20023;-91
2021/01/18 00:23:53;;;;;;;36.07;7.13;;;4.20;93.20;;;;;;5001914;28;20148;-90
2021/01/18 00:26:19;;;;;;;35.73;8.37;;;4.20;93.10;;;;;;5001817;28;20053;-90
2021/01/18 00:28:45;;;;;;;32.43;6.50;;;4.20;93.80;;;;;;5004897;28;20049;-91
2021/01/18 00:31:12;;;;;;;27.07;7.47;;;4.20;92.90;;;;;;5005313;28;20018;-92
2021/01/18 00:33:38;;;;;;;28.43;6.87;;;4.20;93.80;;;;;;5005171;28;20014;-90
2021/01/18 00:36:05;;;;;;;33.93;6.63;;;4.20;93.20;;;;;;5005258;28;20093;-91
2021/01/18 00:38:31;;;;;;;23.70;6.30;;;4.30;93.10;;;;;;5005504;28;20018;-90
2021/01/18 00:40:57;;;;;;;33.33;6.80;;;4.20;93.10;;;;;;5005070;28;20112;-93
2021/01/18 00:43:23;;;;;;;29.53;6.57;;;4.20;92.80;;;;;;5005233;28;20030;-91
2021/01/18 00:45:48;;;;;;;30.03;7.67;;;4.20;93.20;;;;;;5005078;28;20022;-93
2021/01/18 00:48:14;;;;;;;30.43;8.10;;;4.20;93.40;;;;;;5005173;28;20014;-93
2021/01/18 00:50:40;;;;;;;34.50;7.17;;;4.20;94.10;;;;;;5004925;28;20014;-92
2021/01/18 00:53:05;;;;;;;29.80;7.13;;;4.20;93.20;;;;;;5005113;28;20053;-93
2021/01/18 00:55:31;;;;;;;37.60;7.33;;;4.20;93.40;;;;;;5004595;28;20014;-91
2021/01/18 00:57:56;;;;;;;32.23;7.47;;;4.20;93.80;;;;;;5004771;28;20082;-92
2021/01/18 01:00:25;;;;;;;35.33;7.37;;;4.20;93.30;;;;;;5004477;28;20105;-92
2021/01/18 01:02:51;;;;;;;31.30;7.23;;;4.30;94.20;;;;;;5021508;28;20027;-91
2021/01/18 01:05:20;;;;;;;29.67;6.97;;;4.20;94.20;;;;;;5004538;28;20075;-91
2021/01/18 01:07:47;;;;;;;27.13;6.78;;;4.20;94.10;;;;;;5004833;28;20018;-91
2021/01/18 01:10:18;;;;;;;26.23;6.90;;;4.20;93.20;;;;;;5004531;28;20037;-93
2021/01/18 01:12:44;;;;;;;26.93;6.70;;;4.20;93.20;;;;;;5004896;28;20022;-91
2021/01/18 01:15:10;;;;;;;32.03;7.00;;;4.20;94.20;;;;;;5004671;28;20020;-92
2021/01/18 01:17:46;;;;;;;28.93;8.87;;;4.20;94.10;;;;;;5004350;28;20014;-92
2021/01/18 01:20:13;;;;;;;30.43;6.63;;;4.20;93.90;;;;;;5004387;28;20017;-91
2021/01/18 01:22:40;;;;;;;31.67;7.50;;;4.20;93.50;;;;;;5004653;28;20018;-91
2021/01/18 01:25:07;;;;;;;26.70;7.17;;;4.30;94.00;;;;;;5004528;28;20015;-92
2021/01/18 01:27:32;;;;;;;31.40;8.80;;;4.30;93.60;;;;;;5004403;28;20038;-93
2021/01/18 01:29:58;;;;;;;32.27;7.80;;;4.20;94.30;;;;;;5004205;28;20033;-91
2021/01/18 01:32:24;;;;;;;31.87;9.13;;;4.30;94.10;;;;;;5004217;28;20053;-91
2021/01/18 01:34:49;;;;;;;35.70;8.37;;;4.20;93.60;;;;;;5004102;28;20021;-91
2021/01/18 01:37:15;;;;;;;28.97;8.70;;;4.20;94.10;;;;;;5004251;28;20034;-91
2021/01/18 01:39:41;;;;;;;34.63;8.60;;;4.20;93.80;;;;;;5003223;28;20089;-91
2021/01/18 01:42:20;;;;;;;31.07;10.13;;;4.30;93.70;;;;;;5004079;28;20010;-92
2021/01/18 01:44:46;;;;;;;32.75;8.10;;;4.30;94.60;;;;;;5004249;28;20006;-92
2021/01/18 01:47:32;;;;;;;33.37;8.07;;;4.30;94.40;;;;;;5004109;28;20041;-92
2021/01/18 01:50:03;;;;;;;29.53;7.70;;;4.30;93.90;;;;;;5003829;28;20037;-92
2021/01/18 01:52:29;;;;;;;33.83;8.47;;;4.30;94.10;;;;;;5004020;28;20093;-93
2021/01/18 01:55:00;;;;;;;32.17;7.57;;;4.30;93.70;;;;;;5003905;28;20011;-92
2021/01/18 01:57:26;;;;;;;36.10;8.97;;;4.30;94.10;;;;;;5004066;28;20011;-91
2021/01/18 01:59:52;;;;;;;27.23;7.87;;;4.30;94.30;;;;;;5003559;28;20042;-92
2021/01/18 02:02:19;;;;;;;31.37;8.70;;;4.30;94.30;;;;;;5003627;28;20022;-92
2021/01/18 02:04:47;;;;;;;29.67;8.00;;;4.30;93.80;;;;;;5003607;28;20045;-90
2021/01/18 02:07:23;;;;;;;30.33;7.93;;;4.30;94.00;;;;;;5003630;28;20014;-92
2021/01/18 02:09:49;;;;;;;28.33;7.30;;;4.30;94.20;;;;;;5003459;28;20069;-92
2021/01/18 02:12:15;;;;;;;25.37;7.70;;;4.30;93.70;;;;;;5003436;28;20078;-93
2021/01/18 02:14:53;;;;;;;27.80;7.00;;;4.20;94.00;;;;;;5003364;28;20045;-92
2021/01/18 02:17:29;;;;;;;28.73;7.80;;;4.30;93.50;;;;;;5003210;28;20042;-91
2021/01/18 02:20:08;;;;;;;29.07;7.60;;;4.30;94.00;;;;;;5003321;28;20041;-92
2021/01/18 02:23:13;;;;;;;31.60;7.80;;;4.20;93.70;;;;;;5003199;28;20147;-93
2021/01/18 02:25:47;;;;;;;26.53;7.13;;;4.30;94.20;;;;;;5002454;28;20029;-91
2021/01/18 02:28:23;;;;;;;27.20;7.40;;;4.30;93.80;;;;;;5003372;28;20033;-91
2021/01/18 02:31:28;;;;;;;27.33;8.20;;;4.30;94.10;;;;;;5003015;28;20117;-93
2021/01/18 02:34:12;;;;;;;29.07;7.33;;;4.30;93.90;;;;;;5003095;28;20019;-92
2021/01/18 02:36:38;;;;;;;32.50;7.53;;;4.30;94.40;;;;;;5002776;28;20053;-91
2021/01/18 02:39:12;;;;;;;25.83;6.00;;;4.30;94.10;;;;;;5002841;28;20089;-91
2021/01/18 02:41:55;;;;;;;26.53;6.80;;;4.30;93.20;;;;;;5002650;28;20018;-92
2021/01/18 02:44:23;;;;;;;24.93;5.97;;;4.30;93.50;;;;;;5002943;28;20010;-92
2021/01/18 02:46:50;;;;;;;27.57;6.03;;;4.30;94.00;;;;;;5002681;28;20010;-92
2021/01/18 02:49:17;;;;;;;21.93;5.50;;;4.30;93.70;;;;;;5002430;28;20049;-91
2021/01/18 02:51:52;;;;;;;24.57;5.80;;;4.30;93.50;;;;;;5002586;28;20014;-91
2021/01/18 02:54:17;;;;;;;25.70;5.33;;;4.30;93.40;;;;;;5002711;28;20017;-92
2021/01/18 02:56:49;;;;;;;17.77;4.63;;;4.30;93.60;;;;;;5002720;28;20019;-91
2021/01/18 02:59:15;;;;;;;23.50;5.37;;;4.30;93.80;;;;;;4992999;28;20051;-92
2021/01/18 03:02:44;;;;;;;21.23;5.13;;;4.20;93.70;;;;;;4979705;28;20033;-92
2021/01/18 03:05:42;;;;;;;19.58;4.68;;;4.20;93.40;;;;;;4906351;29;20102;-92
2021/01/18 03:08:27;;;;;;;18.92;5.32;;;4.20;93.70;;;;;;4904056;29;20016;-91
2021/01/18 03:11:15;;;;;;;24.47;5.67;;;4.20;93.60;;;;;;4979025;28;20031;-92
2021/01/18 03:14:08;;;;;;;22.03;4.97;;;4.20;93.80;;;;;;4979995;28;20027;-92
2021/01/18 03:16:38;;;;;;;18.83;4.40;;;4.20;93.70;;;;;;4951125;28;20020;-92
2021/01/18 03:19:05;;;;;;;23.77;5.23;;;4.20;93.50;;;;;;4979580;28;20019;-92
2021/01/18 03:21:31;;;;;;;24.00;5.40;;;4.20;93.70;;;;;;4979774;28;20038;-92
2021/01/18 03:23:57;;;;;;;21.17;4.97;;;4.20;94.00;;;;;;4979956;28;20007;-92
2021/01/18 03:26:27;;;;;;;25.30;4.87;;;4.20;94.00;;;;;;4979887;28;20083;-91
2021/01/18 03:28:53;;;;;;;21.50;5.23;;;4.20;93.50;;;;;;4979909;28;20059;-92
2021/01/18 03:31:19;;;;;;;23.17;4.83;;;4.10;94.00;;;;;;4979742;28;20015;-92
2021/01/18 03:33:45;;;;;;;25.50;5.20;;;4.20;94.00;;;;;;4979876;28;20026;-92
2021/01/18 03:36:10;;;;;;;21.87;5.97;;;4.20;93.70;;;;;;4979547;28;20023;-93
2021/01/18 03:38:36;;;;;;;24.33;5.57;;;4.20;94.00;;;;;;4979599;28;20040;-91
2021/01/18 03:41:02;;;;;;;24.03;6.03;;;4.10;93.60;;;;;;4979027;28;20019;-92
2021/01/18 03:43:28;;;;;;;24.20;5.20;;;4.20;93.90;;;;;;4979456;28;20098;-92
2021/01/18 03:45:53;;;;;;;25.13;5.90;;;4.10;93.70;;;;;;4979587;28;20043;-92
2021/01/18 03:48:19;;;;;;;23.43;5.90;;;4.20;93.80;;;;;;4979467;28;20054;-91
2021/01/18 03:50:45;;;;;;;24.27;5.70;;;4.20;94.10;;;;;;4979344;28;20030;-91
2021/01/18 03:53:11;;;;;;;22.80;5.90;;;4.20;93.70;;;;;;4979576;28;20016;-92
2021/01/18 03:55:38;;;;;;;29.73;7.10;;;4.10;93.50;;;;;;4979501;28;20007;-92
2021/01/18 03:58:04;;;;;;;25.60;6.30;;;4.10;94.00;;;;;;4979680;28;20059;-92
2021/01/18 04:00:32;;;;;;;22.87;6.87;;;4.10;93.60;;;;;;4979463;28;20086;-92
2021/01/18 04:02:58;;;;;;;26.73;6.47;;;4.10;93.60;;;;;;4981479;28;20015;-92
2021/01/18 04:05:24;;;;;;;27.33;8.07;;;4.10;94.00;;;;;;4982959;28;20039;-91
2021/01/18 04:07:51;;;;;;;28.37;7.40;;;4.10;93.80;;;;;;4983084;28;20015;-91
2021/01/18 04:10:22;;;;;;;27.73;6.50;;;4.10;93.90;;;;;;4983083;28;20023;-91
2021/01/18 04:12:49;;;;;;;26.37;6.60;;;4.10;94.00;;;;;;4983260;28;20018;-91
2021/01/18 04:15:16;;;;;;;20.93;7.27;;;4.10;93.70;;;;;;4983049;28;20031;-92
2021/01/18 04:17:43;;;;;;;25.77;7.17;;;4.10;93.90;;;;;;4982909;28;20020;-91
2021/01/18 04:20:10;;;;;;;19.90;6.90;;;4.10;94.10;;;;;;4982819;28;20047;-92
2021/01/18 04:22:36;;;;;;;25.40;7.60;;;4.10;94.20;;;;;;4982643;28;20035;-92
2021/01/18 04:25:03;;;;;;;26.30;6.90;;;4.10;93.70;;;;;;4982754;28;20116;-92
2021/01/18 04:27:29;;;;;;;29.13;7.60;;;4.10;93.80;;;;;;4982546;28;20084;-91
2021/01/18 04:29:54;;;;;;;25.33;6.63;;;4.10;94.00;;;;;;4982557;28;20023;-91
2021/01/18 04:32:20;;;;;;;25.87;7.27;;;4.10;94.00;;;;;;4982426;28;20015;-91
2021/01/18 04:34:46;;;;;;;21.83;6.67;;;4.10;94.10;;;;;;4982579;28;20020;-92
2021/01/18 04:37:11;;;;;;;24.93;6.57;;;4.10;93.80;;;;;;4982458;28;20015;-92
2021/01/18 04:39:37;;;;;;;21.17;6.17;;;4.00;93.70;;;;;;4982583;28;20087;-92
2021/01/18 04:42:03;;;;;;;24.93;7.40;;;4.10;93.80;;;;;;4982414;28;20027;-92
2021/01/18 04:44:28;;;;;;;21.47;6.63;;;4.10;93.70;;;;;;4982525;28;20022;-91
2021/01/18 04:46:55;;;;;;;27.77;7.60;;;4.10;93.90;;;;;;4982377;28;20059;-92
2021/01/18 04:49:22;;;;;;;28.00;7.67;;;4.00;94.20;;;;;;4982502;28;20027;-90
2021/01/18 04:51:53;;;;;;;26.80;9.10;;;4.00;93.80;;;;;;4982268;28;20011;-93
2021/01/18 04:54:20;;;;;;;30.40;8.37;;;4.00;93.80;;;;;;4982345;28;20090;-92
2021/01/18 04:57:10;;;;;;;26.87;7.57;;;4.00;93.90;;;;;;4982345;28;20019;-91
2021/01/18 04:59:47;;;;;;;29.47;8.03;;;4.00;94.10;;;;;;4982186;28;20122;-92
2021/01/18 05:02:17;;;;;;;27.07;7.87;;;4.00;94.20;;;;;;4982115;28;20015;-92
2021/01/18 05:04:45;;;;;;;26.63;8.07;;;4.00;94.20;;;;;;4982007;28;20011;-92
2021/01/18 05:07:22;;;;;;;22.93;7.90;;;4.00;94.10;;;;;;4982290;28;20062;-92
2021/01/18 05:09:56;;;;;;;22.80;8.47;;;4.00;93.80;;;;;;4982034;28;20031;-93
2021/01/18 05:12:21;;;;;;;27.33;8.40;;;4.00;93.80;;;;;;4981981;28;20039;-93
2021/01/18 05:14:48;;;;;;;21.30;7.67;;;4.00;93.80;;;;;;4981889;28;20030;-92
2021/01/18 05:17:31;;;;;;;24.10;7.90;;;4.00;93.90;;;;;;4981984;28;20015;-91
2021/01/18 05:19:57;;;;;;;24.10;8.37;;;4.00;94.40;;;;;;4981938;28;20012;-93
2021/01/18 05:22:22;;;;;;;27.27;8.33;;;4.00;94.00;;;;;;4981746;28;20019;-92
2021/01/18 05:24:48;;;;;;;27.97;8.27;;;4.00;93.70;;;;;;4981696;28;20019;-92
2021/01/18 05:27:14;;;;;;;26.00;8.67;;;4.00;93.90;;;;;;4981868;28;20047;-92
2021/01/18 05:29:39;;;;;;;28.57;8.83;;;4.00;94.30;;;;;;4981601;28;20046;-92
2021/01/18 05:32:20;;;;;;;28.43;9.07;;;4.00;94.20;;;;;;4981526;28;20035;-92
2021/01/18 05:34:46;;;;;;;28.87;8.60;;;4.00;94.10;;;;;;4981514;28;20039;-91
2021/01/18 05:37:12;;;;;;;25.47;8.83;;;4.00;94.00;;;;;;4981752;28;20054;-92
2021/01/18 05:39:38;;;;;;;26.67;8.93;;;4.00;94.00;;;;;;4981712;28;20036;-91
2021/01/18 05:42:18;;;;;;;32.67;10.97;;;4.00;94.30;;;;;;4981198;28;20035;-91
2021/01/18 05:44:44;;;;;;;31.33;9.43;;;4.00;94.10;;;;;;4980251;28;20027;-91
2021/01/18 05:47:10;;;;;;;27.97;9.43;;;4.00;93.90;;;;;;4979934;28;20015;-92
2021/01/18 05:49:45;;;;;;;30.07;10.53;;;4.00;94.10;;;;;;4980153;28;20031;-92
2021/01/18 05:52:28;;;;;;;27.73;9.97;;;4.10;94.20;;;;;;4980182;28;20039;-91
2021/01/18 05:55:12;;;;;;;29.53;10.03;;;4.10;93.90;;;;;;4954692;29;20110;-90
2021/01/18 05:57:42;;;;;;;26.87;9.67;;;4.10;94.10;;;;;;4957140;28;20494;-90
2021/01/18 06:00:08;;;;;;;31.83;10.23;;;4.10;94.00;;;;;;4968074;28;20053;-89
2021/01/18 06:02:38;;;;;;;25.20;10.37;;;4.10;94.10;;;;;;4964073;29;20031;-82
2021/01/18 06:05:08;;;;;;;30.63;10.93;;;4.10;94.00;;;;;;4960699;29;20027;-84
2021/01/18 06:07:34;;;;;;;27.87;10.97;;;4.10;94.00;;;;;;4960632;28;20043;-84
2021/01/18 06:09:59;;;;;;;29.23;10.80;;;4.10;93.80;;;;;;4961743;29;20039;-84
2021/01/18 06:12:27;;;;;;;29.07;10.27;;;4.10;94.20;;;;;;4960548;29;20034;-83
2021/01/18 06:15:03;;;;;;;32.00;10.60;;;4.10;93.80;;;;;;4958632;28;20043;-85
2021/01/18 06:17:30;;;;;;;29.30;11.47;;;4.20;93.80;;;;;;4959789;29;20023;-85
2021/01/18 06:19:56;;;;;;;29.93;10.93;;;4.20;93.90;;;;;;4960404;28;20042;-82
2021/01/18 06:22:28;;;;;;;34.27;11.87;;;4.20;93.80;;;;;;4959950;28;20048;-84
2021/01/18 06:24:57;;;;;;;38.83;12.90;;;4.20;93.80;;;;;;4959132;28;20027;-82
2021/01/18 06:27:33;;;;;;;31.45;13.02;;;4.20;93.80;;;;;;4960762;29;20027;-83
2021/01/18 06:29:58;;;;;;;36.27;11.80;;;4.20;94.00;;;;;;4959205;29;20027;-84
2021/01/18 06:32:32;;;;;;;28.77;11.93;;;4.20;93.70;;;;;;4958018;29;20034;-84
2021/01/18 06:35:03;;;;;;;30.53;12.30;;;4.20;93.80;;;;;;4975638;28;20037;-84
2021/01/18 06:37:31;;;;;;;29.33;11.80;;;4.20;93.80;;;;;;4964898;28;20023;-82
2021/01/18 06:39:59;;;;;;;29.53;12.33;;;4.20;93.70;;;;;;4959579;28;20035;-83
2021/01/18 06:42:24;;;;;;;29.27;12.33;;;4.20;93.90;;;;;;4948101;28;20055;-82
2021/01/18 06:44:51;;;;;;;24.67;11.77;;;4.20;93.70;;;;;;4941246;28;20473;-82
2021/01/18 06:47:30;;;;;;;32.00;13.07;;;4.20;93.80;;;;;;4948312;29;20039;-83
2021/01/18 06:50:01;;;;;;;32.58;13.73;;;4.20;94.00;;;;;;4958123;28;20039;-83
2021/01/18 06:52:34;;;;;;;33.17;13.93;;;4.20;93.70;;;;;;4957516;29;20027;-83
2021/01/18 06:55:06;;;;;;;34.33;12.87;;;4.20;93.80;;;;;;4963955;28;20038;-83
2021/01/18 06:57:47;;;;;;;31.77;12.00;;;4.20;93.80;;;;;;4976295;28;20018;-83
2021/01/18 07:00:14;;;;;;;37.57;14.23;;;4.20;94.00;;;;;;4989596;28;20042;-84
2021/01/18 07:02:58;;;;;;;31.03;13.87;;;4.30;93.70;;;;;;4979508;28;20030;-84
2021/01/18 07:05:34;;;;;;;30.83;13.17;;;4.30;94.10;;;;;;4997947;28;20269;-84
2021/01/18 07:08:19;;;;;;;31.47;12.00;;;4.20;93.80;;;;;;4997939;28;20148;-83
2021/01/18 07:10:47;;;;;;;30.97;13.33;;;4.20;94.00;;;;;;4997008;28;20233;-83
2021/01/18 07:13:14;;;;;;;34.43;13.23;;;4.30;93.80;;;;;;4999086;28;20029;-84
2021/01/18 07:15:41;;;;;;;34.27;14.07;;;4.20;93.80;;;;;;4994289;28;20026;-83
2021/01/18 07:18:12;;;;;;;32.17;13.67;;;4.30;94.10;;;;;;4996139;28;20027;-84
2021/01/18 07:20:43;;;;;;;34.80;13.80;;;4.20;93.90;;;;;;4977111;28;20036;-84
2021/01/18 07:23:08;;;;;;;33.23;13.47;;;4.20;93.90;;;;;;4978741;28;20045;-84
2021/01/18 07:25:36;;;;;;;38.00;14.80;;;4.30;94.10;;;;;;4977884;28;20110;-84
2021/01/18 07:28:03;;;;;;;33.97;13.27;;;4.30;94.10;;;;;;4979479;28;20054;-84
2021/01/18 07:30:37;;;;;;;33.37;13.43;;;4.30;93.80;;;;;;4978774;28;20061;-84
2021/01/18 07:33:11;;;;;;;37.97;14.30;;;4.30;94.00;;;;;;4976675;28;20018;-83
2021/01/18 07:35:38;;;;;;;33.43;13.67;;;4.30;94.10;;;;;;4995311;28;20049;-82
2021/01/18 07:38:22;;;;;;;31.83;14.00;;;4.30;93.80;;;;;;4997744;28;20029;-83
2021/01/18 07:41:06;;;;;;;33.60;14.77;;;4.30;93.80;;;;;;5001542;28;20095;-83
2021/01/18 07:43:36;;;;;;;32.03;14.07;;;4.40;94.00;;;;;;4981298;28;20030;-83
2021/01/18 07:46:30;;;;;;;32.83;14.30;;;4.30;94.00;;;;;;4982066;28;20026;-80
2021/01/18 07:49:19;;;;;;;36.03;13.93;;;4.30;93.80;;;;;;4980627;28;20027;-82
2021/01/18 07:51:45;;;;;;;35.03;13.53;;;4.30;93.90;;;;;;4976523;28;20038;-89
2021/01/18 07:54:36;;;;;;;29.00;13.63;;;4.30;94.00;;;;;;5000884;28;20149;-90
2021/01/18 07:57:27;;;;;;;33.97;13.50;;;4.40;93.70;;;;;;4993964;28;20121;-87
2021/01/18 08:00:18;;;;;;;29.70;14.17;;;4.40;93.70;;;;;;4983716;28;20042;-88
2021/01/18 08:02:44;;;;;;;31.37;13.77;;;4.40;93.90;;;;;;4989598;28;20488;-89
2021/01/18 08:05:25;;;;;;;34.40;15.03;;;4.40;93.70;;;;;;5003400;28;20455;-90
2021/01/18 08:08:13;;;;;;;32.27;15.37;;;4.40;93.90;;;;;;4982122;28;20026;-91
2021/01/18 08:10:57;;;;;;;34.20;16.00;;;4.40;93.80;;;;;;4980002;28;20042;-90
2021/01/18 08:13:53;;;;;;;35.53;15.83;;;4.40;93.70;;;;;;4997512;28;20026;-89
2021/01/18 08:16:24;;;;;;;34.43;15.00;;;4.40;93.80;;;;;;4993450;28;20050;-90
2021/01/18 08:19:08;;;;;;;32.30;15.37;;;4.40;93.70;;;;;;4980864;28;20030;-89
2021/01/18 08:21:36;;;;;;;37.03;15.47;;;4.40;93.70;;;;;;4997625;28;20034;-89
2021/01/18 08:24:11;;;;;;;35.43;16.23;;;4.40;93.70;;;;;;4984905;28;20094;-90
2021/01/18 08:26:56;;;;;;;37.63;17.07;;;4.40;93.70;;;;;;4980031;28;20053;-88
2021/01/18 08:29:40;;;;;;;36.23;16.23;;;4.40;94.20;;;;;;4980180;28;20120;-89
2021/01/18 08:32:24;;;;;;;39.27;17.90;;;4.40;93.70;;;;;;4981281;28;20408;-88
2021/01/18 08:34:58;;;;;;;36.23;16.40;;;4.40;94.30;;;;;;4982671;28;20057;-90
2021/01/18 08:37:25;;;;;;;33.70;16.03;;;4.40;93.80;;;;;;4997963;28;20026;-88
2021/01/18 08:39:55;;;;;;;32.50;17.07;;;4.50;93.80;;;;;;4980282;28;20069;-87
2021/01/18 08:42:35;;;;;;;34.27;16.33;;;4.50;94.00;;;;;;4981083;28;20116;-91
2021/01/18 08:45:07;;;;;;;38.40;17.93;;;4.50;93.80;;;;;;4979568;28;20488;-88
2021/01/18 08:47:34;;;;;;;45.40;17.77;;;4.50;94.10;;;;;;4985198;28;20041;-83
2021/01/18 08:50:19;;;;;;;38.70;18.63;;;4.50;94.00;;;;;;4983218;28;20069;-85
2021/01/18 08:52:44;;;;;;;43.27;17.23;;;4.50;94.00;;;;;;4982500;28;20018;-84
2021/01/18 08:55:30;;;;;;;40.67;17.43;;;4.50;93.70;;;;;;5001958;28;20029;-84
2021/01/18 08:58:01;;;;;;;40.80;17.93;;;4.60;94.10;;;;;;5001588;28;20476;-83
2021/01/18 09:00:44;;;;;;;37.73;17.80;;;4.60;93.90;;;;;;4984975;28;20058;-83
2021/01/18 09:03:17;;;;;;;36.73;17.33;;;4.60;93.70;;;;;;5009454;28;20049;-87
2021/01/18 09:06:28;;;;;;;38.87;17.50;;;4.60;93.70;;;;;;4982171;28;20094;-85
2021/01/18 09:09:40;;;;;;;39.87;16.60;;;4.60;94.20;;;;;;4981289;28;20058;-86
2021/01/18 09:12:10;;;;;;;35.70;16.10;;;4.60;93.80;;;;;;4970790;28;20380;-86
2021/01/18 09:14:36;;;;;;;42.47;18.00;;;4.60;93.70;;;;;;5026301;28;20025;-84
2021/01/18 09:17:09;;;;;;;43.90;17.63;;;4.70;93.60;;;;;;5001601;28;20027;-82
2021/01/18 09:19:53;;;;;;;40.13;17.23;;;4.70;93.70;;;;;;4988386;28;20038;-84
2021/01/18 09:22:22;;;;;;;37.47;17.63;;;4.70;94.20;;;;;;4987225;28;20031;-85
2021/01/18 09:24:49;;;;;;;;;;;4.70;93.80;;;;;;4987953;28;20492;-83
2021/01/18 09:27:15;;;;;;;36.43;15.73;;;4.70;93.90;;;;;;4988657;28;19949;-84
2021/01/18 09:29:42;;;;;;;45.90;17.63;;;4.70;93.90;;;;;;4986234;28;20465;-82
2021/01/18 09:32:13;;;;;;;39.90;17.87;;;4.80;93.60;;;;;;5000128;28;20030;-91
2021/01/18 09:34:39;;;;;;;46.40;20.40;;;4.80;93.80;;;;;;4979930;28;20462;-92
2021/01/18 09:37:06;;;;;;;40.07;17.60;;;4.80;93.90;;;;;;4981386;28;20054;-91
2021/01/18 09:39:31;;;;;;;37.93;17.77;;;4.80;93.60;;;;;;4979922;28;20093;-91
2021/01/18 09:41:57;;;;;;;40.27;17.93;;;4.80;93.80;;;;;;4979886;28;20447;-92
2021/01/18 09:44:23;;;;;;;41.13;17.70;;;4.80;93.80;;;;;;4981460;28;20385;-87
2021/01/18 09:46:50;;;;;;;40.20;19.93;;;4.80;93.70;;;;;;4997038;28;20049;-90
2021/01/18 09:49:25;;;;;;;39.47;17.20;;;4.80;93.70;;;;;;4994900;28;20551;-86
2021/01/18 09:51:52;;;;;;;40.83;18.47;;;4.90;93.60;;;;;;4984885;28;20030;-92
2021/01/18 09:54:17;;;;;;;41.13;19.83;;;4.90;93.60;;;;;;4978931;28;20057;-91
2021/01/18 09:56:44;;;;;;;44.97;19.53;;;4.90;93.70;;;;;;4995096;28;20372;-91
2021/01/18 09:59:14;;;;;;;45.10;19.30;;;4.90;93.90;;;;;;4992603;28;20041;-91
2021/01/18 10:01:42;;;;;;;44.47;20.30;;;4.90;93.80;;;;;;4983057;28;20030;-92
2021/01/18 10:04:20;;;;;;;42.97;20.48;;;4.90;93.60;;;;;;4979583;28;20053;-90
2021/01/18 10:06:48;;;;;;;47.73;20.67;;;4.90;93.70;;;;;;4989533;28;20027;-91
2021/01/18 10:09:19;;;;;;;41.60;19.58;;;4.90;93.60;;;;;;4996085;28;20141;-90
2021/01/18 10:11:46;;;;;;;46.63;21.33;;;4.90;93.80;;;;;;4995192;28;20030;-83
2021/01/18 10:14:21;;;;;;;41.40;20.83;;;4.90;93.70;;;;;;5011144;28;20396;-81
2021/01/18 10:16:57;;;;;;;45.53;21.30;;;4.90;93.60;;;;;;5003616;28;20030;-83
2021/01/18 10:19:23;;;;;;;42.23;21.73;;;4.90;93.70;;;;;;4986229;28;20030;-83
2021/01/18 10:21:48;;;;;;;43.33;21.53;;;4.90;93.80;;;;;;5005375;28;20040;-81
2021/01/18 10:24:25;;;;;;;45.00;21.47;;;5.00;93.60;;;;;;4987658;28;20045;-81
2021/01/18 10:27:00;;;;;;;44.67;21.07;;;5.00;93.70;;;;;;5006025;28;20457;-83
2021/01/18 10:29:28;;;;;;;41.50;21.00;;;5.00;93.70;;;;;;4985548;28;20050;-84
2021/01/18 10:31:53;;;;;;;47.83;22.13;;;5.00;93.60;;;;;;4985949;28;20070;-80
2021/01/18 10:34:22;;;;;;;45.97;22.50;;;5.00;93.60;;;;;;4995435;28;20018;-83
2021/01/18 10:36:51;;;;;;;44.95;21.17;;;5.00;93.60;;;;;;4980192;28;20472;-84
2021/01/18 10:39:30;;;;;;;48.08;22.35;;;5.00;93.60;;;;;;4982731;28;20061;-84
2021/01/18 10:42:10;;;;;;;44.00;22.27;;;5.00;93.80;;;;;;4983549;28;20397;-86
2021/01/18 10:44:52;;;;;;;46.00;21.93;;;5.00;93.60;;;;;;4979725;28;20037;-83
2021/01/18 10:47:21;;;;;;;44.57;21.30;;;5.00;94.20;;;;;;5000336;28;20038;-83
2021/01/18 10:49:54;;;;;;;43.38;20.85;;;5.00;93.70;;;;;;4980595;28;20129;-89
2021/01/18 10:52:31;;;;;;;47.43;21.37;;;5.10;93.70;;;;;;4986310;28;20073;-91
2021/01/18 10:55:02;;;;;;;37.10;19.07;;;5.10;93.90;;;;;;4982677;28;20022;-91
2021/01/18 10:57:29;;;;;;;43.07;20.57;;;5.10;93.80;;;;;;4978454;28;20018;-90
2021/01/18 11:00:04;;;;;;;37.77;17.93;;;5.10;93.70;;;;;;4966109;28;20055;-90
2021/01/18 11:02:30;;;;;;;45.73;18.57;;;5.10;93.50;;;;;;4956439;29;20023;-90
2021/01/18 11:04:56;;;;;;;36.40;17.53;;;5.20;93.70;;;;;;4962129;28;20031;-89
2021/01/18 11:07:23;;;;;;;43.70;18.23;;;5.20;93.60;;;;;;4991457;28;20041;-91
2021/01/18 11:09:58;;;;;;;35.43;18.83;;;5.20;93.50;;;;;;5011735;28;20102;-92
2021/01/18 11:12:34;;;;;;;38.87;18.57;;;5.20;93.50;;;;;;5011472;28;20030;-92
2021/01/18 11:15:03;;;;;;;37.37;18.20;;;5.20;93.60;;;;;;5007378;28;20019;-91
2021/01/18 11:17:30;;;;;;;32.88;18.02;;;5.20;93.60;;;;;;5006205;28;20034;-93
2021/01/18 11:19:56;;;;;;;38.00;17.23;;;5.20;93.60;;;;;;5015525;28;20019;-93
2021/01/18 11:22:22;;;;;;;36.30;16.57;;;5.20;93.70;;;;;;5001315;28;20038;-93
2021/01/18 11:24:50;;;;;;;35.23;17.07;;;5.20;93.70;;;;;;4996348;28;20011;-92
2021/01/18 11:27:16;;;;;;;32.85;16.13;;;5.20;93.60;;;;;;4989968;28;20034;-89
2021/01/18 11:29:42;;;;;;;37.37;17.90;;;5.20;93.60;;;;;;4979640;28;20401;-90
2021/01/18 11:32:08;;;;;;;36.17;17.33;;;5.20;93.50;;;;;;4982180;28;20039;-89
2021/01/18 11:34:34;;;;;;;31.87;16.93;;;5.20;93.50;;;;;;4973821;28;20118;-90
2021/01/18 11:37:18;;;;;;;39.47;17.83;;;5.20;93.50;;;;;;4974541;28;20031;-85
2021/01/18 11:39:43;;;;;;;33.03;15.70;;;5.20;93.50;;;;;;4980478;28;20046;-88
2021/01/18 11:42:09;;;;;;;35.33;16.20;;;5.20;93.50;;;;;;4980435;28;20039;-83
2021/01/18 11:44:34;;;;;;;36.30;15.77;;;5.20;93.60;;;;;;4979027;28;20040;-83
2021/01/18 11:47:02;;;;;;;33.33;15.83;;;5.30;93.50;;;;;;4983627;28;20034;-82
2021/01/18 11:49:28;;;;;;;36.23;15.63;;;5.30;93.40;;;;;;4981420;28;20058;-83
2021/01/18 11:52:00;;;;;;;31.37;15.23;;;5.30;93.40;;;;;;4977225;28;20344;-82
2021/01/18 11:54:25;;;;;;;34.40;15.70;;;5.30;93.40;;;;;;4983009;28;20046;-82
2021/01/18 11:56:51;;;;;;;29.03;13.60;;;5.40;93.30;;;;;;4980585;28;20473;-83
2021/01/18 11:59:18;;;;;;;35.70;18.30;;;5.40;93.30;;;;;;4978867;28;20461;-84
2021/01/18 12:01:47;;;;;;;27.93;13.90;;;5.40;93.20;;;;;;4988491;28;20022;-84
2021/01/18 12:04:13;;;;;;;27.85;13.73;;;5.40;93.20;;;;;;4998861;28;20041;-83
2021/01/18 12:06:39;;;;;;;30.83;13.57;;;5.40;93.20;;;;;;4997692;28;20034;-83
2021/01/18 12:09:06;;;;;;;36.37;13.73;;;5.40;93.20;;;;;;4997310;28;20128;-83
2021/01/18 12:11:39;;;;;;;29.67;12.67;;;5.40;93.20;;;;;;4998912;28;20262;-83
2021/01/18 12:14:07;;;;;;;28.20;12.27;;;5.40;93.10;;;;;;4990738;28;20031;-83
2021/01/18 12:16:33;;;;;;;30.17;13.47;;;5.50;93.10;;;;;;4978962;28;20050;-83
2021/01/18 12:18:58;;;;;;;28.47;11.93;;;5.40;93.40;;;;;;4978891;28;20054;-83
2021/01/18 12:21:26;;;;;;;31.73;12.37;;;5.50;93.00;;;;;;4982472;28;20536;-81
2021/01/18 12:23:51;;;;;;;29.07;12.97;;;5.50;93.10;;;;;;4981508;28;20066;-84
2021/01/18 12:26:20;;;;;;;29.87;12.30;;;5.50;93.00;;;;;;4978811;28;20022;-84
2021/01/18 12:28:48;;;;;;;29.75;12.77;;;5.50;92.90;;;;;;4978069;28;20015;-84
2021/01/18 12:31:15;;;;;;;27.13;11.77;;;5.60;92.90;;;;;;4978442;28;20027;-85
2021/01/18 12:33:41;;;;;;;27.97;12.53;;;5.50;92.80;;;;;;4984665;28;20062;-84
2021/01/18 12:36:07;;;;;;;28.10;12.13;;;5.50;92.80;;;;;;4981276;28;20034;-84
2021/01/18 12:38:33;;;;;;;32.63;13.60;;;5.50;92.80;;;;;;4978884;28;20030;-85
2021/01/18 12:40:59;;;;;;;26.17;11.37;;;5.50;92.80;;;;;;4977435;28;20031;-85
2021/01/18 12:43:25;;;;;;;27.77;12.07;;;5.60;92.90;;;;;;4976716;28;20109;-87
2021/01/18 12:45:51;;;;;;;31.53;13.13;;;5.60;92.80;;;;;;4983952;28;20019;-87
2021/01/18 12:48:17;;;;;;;26.70;13.27;;;5.60;92.70;;;;;;4998809;28;20304;-87
2021/01/18 12:50:44;;;;;;;31.07;13.17;;;5.60;92.80;;;;;;4979629;28;20030;-86
2021/01/18 12:53:10;;;;;;;26.43;12.77;;;5.60;92.80;;;;;;4980371;28;20041;-85
2021/01/18 12:55:36;;;;;;;30.50;13.53;;;5.60;92.80;;;;;;4995133;28;20022;-86
2021/01/18 12:58:02;;;;;;;33.40;14.17;;;5.60;92.90;;;;;;4992299;28;20495;-85
2021/01/18 13:00:28;;;;;;;32.93;15.40;;;5.50;92.80;;;;;;4996654;28;20074;-86